createdAt,value
2023-01-30T00:01:37.399Z,-4.47
2023-01-30T00:04:03.916Z,-4.49
2023-01-30T00:06:30.432Z,-4.51
2023-01-30T00:08:59.567Z,-4.57
2023-01-30T00:11:28.760Z,-4.57
2023-01-30T00:13:55.239Z,-4.61
2023-01-30T00:16:21.866Z,-4.63
2023-01-30T00:18:48.528Z,-4.65
2023-01-30T00:21:15.705Z,-4.65
2023-01-30T00:23:42.480Z,-4.71
2023-01-30T00:26:09.885Z,-4.75
2023-01-30T00:28:36.597Z,-4.74
2023-01-30T00:31:03.189Z,-4.77
2023-01-30T00:33:29.944Z,-4.81
2023-01-30T00:35:57.052Z,-4.86
2023-01-30T00:38:25.822Z,-4.83
2023-01-30T00:40:52.448Z,-4.87
2023-01-30T00:43:38.489Z,-4.92
2023-01-30T00:46:28.332Z,-4.89
2023-01-30T00:48:54.875Z,-4.89
2023-01-30T00:51:21.363Z,-4.92
2023-01-30T00:53:47.838Z,-4.93
2023-01-30T00:56:14.395Z,-4.91
2023-01-30T00:58:40.932Z,-4.93
2023-01-30T01:01:07.465Z,-4.92
2023-01-30T01:03:33.947Z,-4.94
2023-01-30T01:06:00.877Z,-4.98
2023-01-30T01:08:27.373Z,-5.02
2023-01-30T01:10:53.864Z,-5.03
2023-01-30T01:13:20.380Z,-5.04
2023-01-30T01:15:46.836Z,-5.07
2023-01-30T01:18:15.595Z,-5.05
2023-01-30T01:20:42.070Z,-5.02
2023-01-30T01:23:10.188Z,-5.06
2023-01-30T01:25:36.710Z,-5.05
2023-01-30T01:28:03.583Z,-5.06
2023-01-30T01:30:30.115Z,-5.09
2023-01-30T01:32:56.880Z,-5.09
2023-01-30T01:35:23.385Z,-5.13
2023-01-30T01:37:53.060Z,-5.14
2023-01-30T01:40:38.417Z,-5.12
2023-01-30T01:43:17.659Z,-5.11
2023-01-30T01:45:45.141Z,-5.18
2023-01-30T01:48:14.690Z,-5.19
2023-01-30T01:50:44.304Z,-5.17
2023-01-30T01:53:12.025Z,-5.23
2023-01-30T01:55:40.941Z,-5.16
2023-01-30T01:58:17.472Z,-5.23
2023-01-30T02:00:44.042Z,-5.16
2023-01-30T02:03:12.662Z,-5.19
2023-01-30T02:05:42.930Z,-5.21
2023-01-30T02:08:16.999Z,-5.19
2023-01-30T02:11:01.607Z,-5.18
2023-01-30T02:16:59.921Z,-5.21
2023-01-30T02:19:26.484Z,-5.20
2023-01-30T02:22:08.200Z,-5.22
2023-01-30T02:24:43.837Z,-5.27
2023-01-30T02:27:13.562Z,-5.35
2023-01-30T02:29:49.291Z,-5.36
2023-01-30T02:32:26.124Z,-5.37
2023-01-30T02:35:09.691Z,-5.36
2023-01-30T02:37:39.031Z,-5.34
2023-01-30T02:40:05.519Z,-5.32
2023-01-30T02:42:32.038Z,-5.28
2023-01-30T02:45:01.525Z,-5.28
2023-01-30T02:47:34.624Z,-5.29
2023-01-30T02:50:05.748Z,-5.31
2023-01-30T02:52:34.088Z,-5.26
2023-01-30T02:55:00.632Z,-5.29
2023-01-30T02:57:27.449Z,-5.32
2023-01-30T02:59:58.793Z,-5.35
2023-01-30T03:02:25.369Z,-5.31
2023-01-30T03:04:51.920Z,-5.38
2023-01-30T03:07:27.193Z,-5.39
2023-01-30T03:09:56.721Z,-5.38
2023-01-30T03:12:39.699Z,-5.32
2023-01-30T03:15:06.412Z,-5.33
2023-01-30T03:17:33.144Z,-5.37
2023-01-30T03:19:59.995Z,-5.38
2023-01-30T03:22:26.606Z,-5.43
2023-01-30T03:24:53.738Z,-5.42
2023-01-30T03:27:21.653Z,-5.44
2023-01-30T03:29:48.168Z,-5.42
2023-01-30T03:32:14.701Z,-5.42
2023-01-30T03:34:41.885Z,-5.43
2023-01-30T03:37:08.750Z,-5.42
2023-01-30T03:39:35.435Z,-5.43
2023-01-30T03:42:02.010Z,-5.45
2023-01-30T03:44:28.504Z,-5.44
2023-01-30T03:46:55.021Z,-5.45
2023-01-30T03:49:21.626Z,-5.50
2023-01-30T03:51:48.245Z,-5.48
2023-01-30T03:54:14.746Z,-5.43
2023-01-30T03:56:41.247Z,-5.52
2023-01-30T03:59:07.754Z,-5.55
2023-01-30T04:01:34.410Z,-5.59
2023-01-30T04:04:00.977Z,-5.51
2023-01-30T04:06:27.503Z,-5.63
2023-01-30T04:08:54.057Z,-5.68
2023-01-30T04:11:21.094Z,-5.59
2023-01-30T04:13:47.630Z,-5.60
2023-01-30T04:16:19.122Z,-5.47
2023-01-30T04:18:45.775Z,-5.56
2023-01-30T04:21:13.230Z,-5.60
2023-01-30T04:23:40.227Z,-5.52
2023-01-30T04:26:07.505Z,-5.67
2023-01-30T04:28:34.318Z,-5.71
2023-01-30T04:31:01.127Z,-5.70
2023-01-30T04:33:27.663Z,-5.72
2023-01-30T04:35:58.329Z,-5.71
2023-01-30T04:38:26.007Z,-5.71
2023-01-30T04:40:53.225Z,-5.72
2023-01-30T04:43:20.740Z,-5.66
2023-01-30T04:45:48.091Z,-5.71
2023-01-30T04:48:15.071Z,-5.77
2023-01-30T04:50:42.385Z,-5.78
2023-01-30T04:53:09.244Z,-5.75
2023-01-30T04:55:36.171Z,-5.73
2023-01-30T04:58:02.797Z,-5.77
2023-01-30T05:00:29.441Z,-5.73
2023-01-30T05:02:56.213Z,-5.80
2023-01-30T05:05:23.472Z,-5.76
2023-01-30T05:07:50.064Z,-5.77
2023-01-30T05:10:16.906Z,-5.72
2023-01-30T05:12:43.397Z,-5.66
2023-01-30T05:15:10.515Z,-5.73
2023-01-30T05:17:37.410Z,-5.70
2023-01-30T05:20:04.464Z,-5.79
2023-01-30T05:22:30.989Z,-5.85
2023-01-30T05:24:57.677Z,-5.85
2023-01-30T05:27:24.233Z,-5.79
2023-01-30T05:29:50.731Z,-5.84
2023-01-30T05:32:18.132Z,-5.90
2023-01-30T05:34:45.117Z,-5.89
2023-01-30T05:37:12.062Z,-5.79
2023-01-30T05:39:38.721Z,-5.89
2023-01-30T05:42:05.502Z,-5.86
2023-01-30T05:44:32.038Z,-5.89
2023-01-30T05:46:58.641Z,-5.85
2023-01-30T05:49:25.212Z,-5.81
2023-01-30T05:51:51.801Z,-5.79
2023-01-30T05:54:18.362Z,-5.54
2023-01-30T05:56:48.468Z,-5.55
2023-01-30T05:59:15.431Z,-5.65
2023-01-30T06:01:41.993Z,-5.50
2023-01-30T06:04:08.678Z,-5.64
2023-01-30T06:06:35.207Z,-5.65
2023-01-30T06:09:01.821Z,-5.66
2023-01-30T06:11:28.398Z,-5.62
2023-01-30T06:13:54.990Z,-5.58
2023-01-30T06:16:21.665Z,-5.56
2023-01-30T06:18:48.351Z,-5.54
2023-01-30T06:21:15.877Z,-5.54
2023-01-30T06:23:42.845Z,-5.43
2023-01-30T06:26:09.780Z,-5.40
2023-01-30T06:28:36.756Z,-5.45
2023-01-30T06:31:05.471Z,-5.45
2023-01-30T06:33:31.993Z,-5.41
2023-01-30T06:35:58.496Z,-5.30
2023-01-30T06:38:26.145Z,-5.33
2023-01-30T06:40:52.856Z,-5.32
2023-01-30T06:43:19.405Z,-5.30
2023-01-30T06:45:46.031Z,-5.10
2023-01-30T06:48:12.572Z,-5.07
2023-01-30T06:50:39.092Z,-5.09
2023-01-30T06:53:06.867Z,-5.00
2023-01-30T06:55:36.974Z,-5.08
2023-01-30T06:58:07.984Z,-5.07
2023-01-30T07:00:34.951Z,-5.10
2023-01-30T07:03:01.676Z,-5.07
2023-01-30T07:05:31.893Z,-4.99
2023-01-30T07:07:58.403Z,-4.97
2023-01-30T07:10:26.297Z,-4.99
2023-01-30T07:12:53.615Z,-4.97
2023-01-30T07:15:20.646Z,-4.93
2023-01-30T07:17:47.344Z,-4.82
2023-01-30T07:20:13.943Z,-4.77
2023-01-30T07:22:40.490Z,-4.78
2023-01-30T07:25:07.484Z,-4.74
2023-01-30T07:27:34.466Z,-4.67
2023-01-30T07:30:01.115Z,-4.54
2023-01-30T07:32:27.615Z,-4.33
2023-01-30T07:34:54.171Z,-4.38
2023-01-30T07:37:20.717Z,-4.45
2023-01-30T07:39:47.187Z,-4.45
2023-01-30T07:42:13.724Z,-4.10
2023-01-30T07:44:40.234Z,-4.06
2023-01-30T07:47:06.768Z,-4.10
2023-01-30T07:49:33.336Z,-4.05
2023-01-30T07:51:59.827Z,-4.04
2023-01-30T07:54:26.855Z,-4.04
2023-01-30T07:56:53.600Z,-4.01
2023-01-30T07:59:20.140Z,-3.99
2023-01-30T08:01:46.697Z,-3.99
2023-01-30T08:04:13.273Z,-3.97
2023-01-30T08:06:39.874Z,-3.76
2023-01-30T08:09:06.866Z,-3.57
2023-01-30T08:11:33.456Z,-3.71
2023-01-30T08:14:00.130Z,-3.69
2023-01-30T08:16:26.759Z,-3.67
2023-01-30T08:18:53.285Z,-3.60
2023-01-30T08:21:19.816Z,-3.46
2023-01-30T08:23:46.388Z,-3.41
2023-01-30T08:26:13.034Z,-3.27
2023-01-30T08:28:39.747Z,-3.16
2023-01-30T08:31:09.847Z,-2.96
2023-01-30T08:33:36.454Z,-2.88
2023-01-30T08:36:02.943Z,-2.76
2023-01-30T08:38:29.492Z,-2.67
2023-01-30T08:40:58.043Z,-2.59
2023-01-30T08:43:24.553Z,-2.49
2023-01-30T08:45:53.253Z,-2.37
2023-01-30T08:48:19.760Z,-2.32
2023-01-30T08:50:46.261Z,-2.32
2023-01-30T08:53:12.775Z,-2.25
2023-01-30T08:55:39.238Z,-2.01
2023-01-30T08:58:05.750Z,-2.03
2023-01-30T09:00:32.245Z,-1.98
2023-01-30T09:02:58.786Z,-1.93
2023-01-30T09:05:25.312Z,-1.91
2023-01-30T09:07:51.805Z,-1.90
2023-01-30T09:10:18.796Z,-1.81
2023-01-30T09:12:46.604Z,-1.71
2023-01-30T09:15:13.299Z,-1.63
2023-01-30T09:17:40.035Z,-1.63
2023-01-30T09:20:07.251Z,-1.66
2023-01-30T09:22:33.745Z,-1.63
2023-01-30T09:25:00.311Z,-1.54
2023-01-30T09:27:26.790Z,-1.47
2023-01-30T09:29:53.310Z,-1.36
2023-01-30T09:32:19.800Z,-1.24
2023-01-30T09:34:46.328Z,-1.04
2023-01-30T09:37:12.922Z,-0.75
2023-01-30T09:39:39.461Z,-0.49
2023-01-30T09:42:05.945Z,-0.28
2023-01-30T09:44:44.916Z,-0.02
2023-01-30T09:47:11.464Z,0.09
2023-01-30T09:49:40.767Z,0.10
2023-01-30T09:52:25.799Z,0.33
2023-01-30T09:54:58.594Z,0.50
2023-01-30T09:57:25.908Z,0.47
2023-01-30T10:00:01.855Z,0.46
2023-01-30T10:02:57.511Z,0.35
2023-01-30T10:05:31.024Z,0.25
2023-01-30T10:08:07.269Z,0.27
2023-01-30T10:10:33.765Z,0.24
2023-01-30T10:13:06.397Z,0.35
2023-01-30T10:15:32.905Z,0.32
2023-01-30T10:18:18.160Z,0.32
2023-01-30T10:20:50.087Z,0.35
2023-01-30T10:23:16.574Z,0.25
2023-01-30T10:26:12.534Z,0.39
2023-01-30T10:28:43.085Z,0.37
2023-01-30T10:31:14.351Z,0.64
2023-01-30T10:33:50.359Z,0.75
2023-01-30T10:36:23.441Z,1.14
2023-01-30T10:38:51.181Z,1.22
2023-01-30T10:41:17.701Z,1.38
2023-01-30T10:43:45.506Z,1.55
2023-01-30T10:46:30.733Z,1.80
2023-01-30T10:49:15.640Z,1.67
2023-01-30T10:51:42.155Z,1.70
2023-01-30T10:54:19.738Z,1.86
2023-01-30T10:57:05.312Z,2.10
2023-01-30T10:59:34.969Z,2.15
2023-01-30T11:02:19.884Z,2.03
2023-01-30T11:05:12.541Z,2.13
2023-01-30T11:07:39.699Z,2.32
2023-01-30T11:10:14.869Z,2.57
2023-01-30T11:12:41.377Z,2.58
2023-01-30T11:15:09.080Z,2.68
2023-01-30T11:17:37.250Z,2.88
2023-01-30T11:20:12.504Z,2.92
2023-01-30T11:22:45.557Z,3.05
2023-01-30T11:25:16.430Z,3.04
2023-01-30T11:27:44.607Z,2.84
2023-01-30T11:30:15.972Z,2.74
2023-01-30T11:32:47.997Z,2.78
2023-01-30T11:35:14.498Z,2.96
2023-01-30T11:37:42.249Z,3.20
2023-01-30T11:40:18.488Z,3.20
2023-01-30T11:42:46.607Z,3.34
2023-01-30T11:45:17.816Z,3.28
2023-01-30T11:47:57.028Z,3.27
2023-01-30T11:50:28.573Z,3.28
2023-01-30T11:53:01.875Z,3.18
2023-01-30T11:55:28.656Z,3.34
2023-01-30T11:57:58.769Z,3.43
2023-01-30T12:00:29.469Z,3.41
2023-01-30T12:02:57.053Z,3.39
2023-01-30T12:05:25.847Z,3.37
2023-01-30T12:07:53.059Z,3.34
2023-01-30T12:10:20.023Z,3.35
2023-01-30T12:12:49.231Z,3.26
2023-01-30T12:15:18.546Z,3.03
2023-01-30T12:17:56.381Z,2.90
2023-01-30T12:20:25.896Z,3.02
2023-01-30T12:22:55.267Z,3.12
2023-01-30T12:25:32.889Z,2.94
2023-01-30T12:28:05.344Z,2.77
2023-01-30T12:30:36.092Z,2.69
2023-01-30T12:33:04.929Z,3.03
2023-01-30T12:35:38.337Z,2.96
2023-01-30T12:38:10.066Z,2.78
2023-01-30T12:40:47.189Z,2.52
2023-01-30T12:43:25.602Z,2.34
2023-01-30T12:46:11.091Z,2.18
2023-01-30T12:49:10.322Z,2.23
2023-01-30T12:52:00.795Z,2.47
2023-01-30T12:54:59.431Z,2.35
2023-01-30T12:57:44.088Z,2.34
2023-01-30T13:00:10.617Z,2.09
2023-01-30T13:02:42.936Z,2.06
2023-01-30T13:05:22.198Z,1.98
2023-01-30T13:08:02.732Z,2.05
2023-01-30T13:10:29.183Z,1.87
2023-01-30T13:12:58.786Z,1.74
2023-01-30T13:15:30.293Z,1.72
2023-01-30T13:18:02.857Z,1.70
2023-01-30T13:20:32.164Z,1.65
2023-01-30T13:23:10.671Z,1.94
2023-01-30T13:25:41.638Z,1.93
2023-01-30T13:28:14.225Z,2.02
2023-01-30T13:30:41.565Z,2.01
2023-01-30T13:33:14.073Z,1.98
2023-01-30T13:35:46.905Z,1.96
2023-01-30T13:38:18.614Z,1.91
2023-01-30T13:40:46.078Z,2.02
2023-01-30T13:43:18.750Z,1.94
2023-01-30T13:45:46.577Z,1.72
2023-01-30T13:48:19.235Z,1.85
2023-01-30T13:50:45.767Z,1.80
2023-01-30T13:53:20.178Z,1.66
2023-01-30T13:55:57.534Z,1.73
2023-01-30T13:58:44.302Z,1.81
2023-01-30T14:01:12.871Z,1.71
2023-01-30T14:03:44.241Z,1.99
2023-01-30T14:06:12.740Z,2.07
2023-01-30T14:08:41.062Z,2.08
2023-01-30T14:11:29.116Z,2.23
2023-01-30T14:14:00.154Z,2.23
2023-01-30T14:16:39.529Z,2.09
2023-01-30T14:19:21.055Z,2.22
2023-01-30T14:22:18.526Z,2.39
2023-01-30T14:24:45.041Z,2.33
2023-01-30T14:27:40.936Z,2.22
2023-01-30T14:30:26.235Z,2.12
2023-01-30T14:32:54.958Z,2.04
2023-01-30T14:35:22.882Z,1.95
2023-01-30T14:38:04.966Z,1.92
2023-01-30T14:40:33.110Z,1.90
2023-01-30T14:43:22.734Z,1.83
2023-01-30T14:45:56.774Z,1.83
2023-01-30T14:48:44.294Z,1.75
2023-01-30T14:51:12.809Z,2.10
2023-01-30T14:53:49.343Z,1.97
2023-01-30T14:56:16.033Z,2.20
2023-01-30T14:58:59.729Z,2.02
2023-01-30T15:01:26.391Z,1.91
2023-01-30T15:03:53.103Z,1.83
2023-01-30T15:06:20.392Z,1.79
2023-01-30T15:08:47.463Z,2.01
2023-01-30T15:11:33.776Z,2.15
2023-01-30T15:14:32.822Z,2.16
2023-01-30T15:17:09.358Z,1.92
2023-01-30T15:19:50.126Z,2.10
2023-01-30T15:22:23.397Z,1.97
2023-01-30T15:25:08.658Z,1.89
2023-01-30T15:27:47.429Z,1.87
2023-01-30T15:30:46.514Z,1.97
2023-01-30T15:33:22.789Z,1.73
2023-01-30T15:35:53.029Z,1.78
2023-01-30T15:38:25.411Z,1.75
2023-01-30T15:40:56.473Z,1.65
2023-01-30T15:43:38.395Z,1.55
2023-01-30T15:46:08.138Z,1.57
2023-01-30T15:48:58.157Z,1.41
2023-01-30T15:51:27.428Z,1.41
2023-01-30T15:53:55.542Z,1.24
2023-01-30T15:56:24.689Z,1.37
2023-01-30T15:58:51.599Z,1.31
2023-01-30T16:01:19.925Z,1.14
2023-01-30T16:03:46.837Z,1.05
2023-01-30T16:06:36.165Z,1.54
2023-01-30T16:09:18.435Z,1.37
2023-01-30T16:11:44.952Z,1.39
2023-01-30T16:14:15.501Z,1.48
2023-01-30T16:16:46.195Z,1.41
2023-01-30T16:19:19.417Z,1.50
2023-01-30T16:21:46.447Z,2.01
2023-01-30T16:24:29.795Z,2.20
2023-01-30T16:27:01.040Z,2.15
2023-01-30T16:29:29.023Z,1.99
2023-01-30T16:31:55.966Z,1.88
2023-01-30T16:34:35.617Z,1.84
2023-01-30T16:37:04.345Z,1.87
2023-01-30T16:39:30.963Z,2.34
2023-01-30T16:41:58.404Z,2.44
2023-01-30T16:44:26.421Z,2.31
2023-01-30T16:46:57.312Z,2.25
2023-01-30T16:49:26.691Z,2.10
2023-01-30T16:52:05.362Z,1.99
2023-01-30T16:54:33.794Z,1.97
2023-01-30T16:57:01.494Z,2.06
2023-01-30T16:59:32.761Z,2.02
2023-01-30T17:02:00.963Z,2.05
2023-01-30T17:04:31.593Z,1.92
2023-01-30T17:06:58.204Z,1.78
2023-01-30T17:09:39.755Z,1.74
2023-01-30T17:12:32.624Z,1.86
2023-01-30T17:15:14.408Z,1.68
2023-01-30T17:17:41.572Z,1.78
2023-01-30T17:20:08.545Z,1.82
2023-01-30T17:22:35.194Z,1.78
2023-01-30T17:25:03.504Z,1.78
2023-01-30T17:27:31.094Z,1.72
2023-01-30T17:29:57.857Z,2.00
2023-01-30T17:32:24.387Z,2.05
2023-01-30T17:34:50.913Z,2.13
2023-01-30T17:37:19.900Z,2.13
2023-01-30T17:39:46.438Z,2.11
2023-01-30T17:42:13.659Z,2.09
2023-01-30T17:44:40.718Z,2.09
2023-01-30T17:47:09.876Z,2.13
2023-01-30T17:49:36.391Z,2.41
2023-01-30T17:52:02.928Z,2.65
2023-01-30T17:54:32.092Z,2.81
2023-01-30T17:57:03.122Z,2.93
2023-01-30T17:59:29.653Z,3.06
2023-01-30T18:01:56.190Z,3.03
2023-01-30T18:04:22.708Z,3.06
2023-01-30T18:06:59.296Z,2.90
2023-01-30T18:09:27.051Z,2.75
2023-01-30T18:11:53.615Z,2.63
2023-01-30T18:14:20.536Z,2.51
2023-01-30T18:16:48.388Z,2.51
2023-01-30T18:19:16.224Z,2.35
2023-01-30T18:21:45.187Z,2.22
2023-01-30T18:24:12.697Z,2.13
2023-01-30T18:26:40.529Z,2.00
2023-01-30T18:29:07.686Z,1.87
2023-01-30T18:31:34.423Z,1.72
2023-01-30T18:34:01.054Z,1.60
2023-01-30T18:36:29.545Z,1.44
2023-01-30T18:38:56.074Z,1.34
2023-01-30T18:41:23.768Z,1.20
2023-01-30T18:43:54.621Z,1.12
2023-01-30T18:46:21.651Z,1.22
2023-01-30T18:48:48.235Z,1.16
2023-01-30T18:51:22.558Z,1.04
2023-01-30T18:53:50.000Z,1.08
2023-01-30T18:56:18.185Z,1.14
2023-01-30T18:58:49.805Z,1.09
2023-01-30T19:01:17.497Z,1.10
2023-01-30T19:03:44.298Z,1.28
2023-01-30T19:06:11.873Z,1.25
2023-01-30T19:08:38.648Z,1.11
2023-01-30T19:11:31.142Z,0.96
2023-01-30T19:13:57.821Z,0.84
2023-01-30T19:16:25.834Z,0.79
2023-01-30T19:29:30.657Z,0.76
2023-01-30T19:31:57.293Z,0.83
2023-01-30T19:34:23.852Z,0.79
2023-01-30T19:36:50.442Z,0.74
2023-01-30T19:39:17.031Z,0.71
2023-01-30T19:41:43.560Z,0.68
2023-01-30T19:44:11.743Z,0.75
2023-01-30T19:46:38.402Z,0.84
2023-01-30T19:49:05.776Z,0.80
2023-01-30T19:51:33.766Z,0.88
2023-01-30T19:54:04.508Z,0.93
2023-01-30T19:56:31.565Z,0.88
2023-01-30T19:58:59.508Z,1.00
2023-01-30T20:01:29.800Z,1.12
2023-01-30T20:03:57.167Z,1.14
2023-01-30T20:06:28.120Z,1.22
2023-01-30T20:09:05.417Z,1.22
2023-01-30T20:11:33.283Z,1.31
2023-01-30T20:13:59.900Z,1.41
2023-01-30T20:16:27.680Z,1.39
2023-01-30T20:18:55.909Z,1.33
2023-01-30T20:21:22.951Z,1.28
2023-01-30T20:23:49.937Z,1.27
2023-01-30T20:26:18.556Z,1.21
2023-01-30T20:28:45.139Z,1.16
2023-01-30T20:31:22.588Z,1.13
2023-01-30T20:33:49.610Z,1.11
2023-01-30T20:36:18.759Z,1.10
2023-01-30T20:38:46.336Z,1.03
2023-01-30T20:41:15.005Z,0.98
2023-01-30T20:43:42.489Z,0.91
2023-01-30T20:46:13.092Z,0.86
2023-01-30T20:48:40.521Z,0.89
2023-01-30T20:51:07.094Z,0.87
2023-01-30T20:53:33.857Z,0.82
2023-01-30T20:56:00.791Z,0.73
2023-01-30T20:58:28.203Z,0.72
2023-01-30T21:00:55.304Z,0.87
2023-01-30T21:03:25.518Z,0.76
2023-01-30T21:05:56.068Z,0.66
2023-01-30T21:08:22.587Z,0.59
2023-01-30T21:10:49.181Z,0.66
2023-01-30T21:13:15.700Z,0.66
2023-01-30T21:15:42.204Z,0.75
2023-01-30T21:18:08.711Z,0.73
2023-01-30T21:20:35.596Z,0.75
2023-01-30T21:23:02.265Z,0.71
2023-01-30T21:25:28.751Z,0.69
2023-01-30T21:27:55.332Z,0.65
2023-01-30T21:30:21.871Z,0.61
2023-01-30T21:32:48.405Z,0.57
2023-01-30T21:35:15.308Z,0.61
2023-01-30T21:38:00.283Z,0.56
2023-01-30T21:40:45.212Z,0.63
2023-01-30T21:43:14.652Z,0.64
2023-01-30T21:45:41.763Z,0.54
2023-01-30T21:48:08.358Z,0.54
2023-01-30T21:50:34.945Z,0.61
2023-01-30T21:53:02.017Z,0.64
2023-01-30T21:55:28.540Z,0.57
2023-01-30T21:57:55.543Z,0.52
2023-01-30T22:00:22.131Z,0.52
2023-01-30T22:02:51.848Z,0.53
2023-01-30T22:05:18.675Z,0.67
2023-01-30T22:07:45.423Z,0.59
2023-01-30T22:10:11.947Z,0.50
2023-01-30T22:12:40.244Z,0.45
2023-01-30T22:15:07.928Z,0.43
2023-01-30T22:17:34.548Z,0.40
2023-01-30T22:20:01.126Z,0.35
2023-01-30T22:22:30.232Z,0.32
2023-01-30T22:24:56.798Z,0.36
2023-01-30T22:27:23.326Z,0.30
2023-01-30T22:29:49.835Z,0.29
2023-01-30T22:32:16.378Z,0.35
2023-01-30T22:34:42.901Z,0.43
2023-01-30T22:37:09.466Z,0.46
2023-01-30T22:39:36.036Z,0.44
2023-01-30T22:42:02.586Z,0.46
2023-01-30T22:44:29.097Z,0.45
2023-01-30T22:46:55.636Z,0.43
2023-01-30T22:49:22.204Z,0.48
2023-01-30T22:51:49.121Z,0.44
2023-01-30T22:54:16.302Z,0.46
2023-01-30T22:56:44.281Z,0.46
2023-01-30T22:59:11.238Z,0.47
2023-01-30T23:01:42.010Z,0.44
2023-01-30T23:04:12.852Z,0.46
2023-01-30T23:06:40.508Z,0.46
2023-01-30T23:09:08.566Z,0.51
2023-01-30T23:11:36.919Z,0.52
2023-01-30T23:14:10.613Z,0.47
2023-01-30T23:16:38.042Z,0.53
2023-01-30T23:19:05.177Z,0.52
2023-01-30T23:21:35.905Z,0.53
2023-01-30T23:24:10.371Z,0.61
2023-01-30T23:26:38.749Z,0.53
2023-01-30T23:29:09.287Z,0.56
2023-01-30T23:31:36.733Z,0.59
2023-01-30T23:34:04.445Z,0.55
2023-01-30T23:36:31.172Z,0.45
2023-01-30T23:38:58.383Z,0.44
2023-01-30T23:41:28.375Z,0.42
2023-01-30T23:43:55.625Z,0.35
2023-01-30T23:46:26.348Z,0.44
2023-01-30T23:48:56.578Z,0.43
2023-01-30T23:51:24.244Z,0.49
2023-01-30T23:53:51.412Z,0.53
2023-01-30T23:56:18.908Z,0.58
2023-01-30T23:58:45.719Z,0.69
